sensor_id;sensor_type;location;lat;lon;timestamp;pressure;altitude;pressure_sealevel;temperature;humidity
46087;BME280;31824;49.648;8.640;2023-07-22T00:01:26;100215.75;;;17.34;100.00
46087;BME280;31824;49.648;8.640;2023-07-22T00:04:28;100208.31;;;17.42;100.00
46087;BME280;31824;49.648;8.640;2023-07-22T00:07:30;100212.59;;;17.27;100.00
46087;BME280;31824;49.648;8.640;2023-07-22T00:10:32;100216.19;;;17.27;100.00
46087;BME280;31824;49.648;8.640;2023-07-22T00:13:34;100221.16;;;17.36;100.00
46087;BME280;31824;49.648;8.640;2023-07-22T00:16:37;100219.63;;;17.40;100.00
46087;BME280;31824;49.648;8.640;2023-07-22T00:19:39;100219.22;;;17.33;100.00
46087;BME280;31824;49.648;8.640;2023-07-22T00:22:41;100228.94;;;17.33;100.00
46087;BME280;31824;49.648;8.640;2023-07-22T00:25:44;100233.31;;;17.32;100.00
46087;BME280;31824;49.648;8.640;2023-07-22T00:28:46;100224.94;;;17.40;100.00
46087;BME280;31824;49.648;8.640;2023-07-22T00:31:49;100232.31;;;17.44;100.00
46087;BME280;31824;49.648;8.640;2023-07-22T00:34:51;100226.56;;;17.37;100.00
46087;BME280;31824;49.648;8.640;2023-07-22T00:37:53;100210.03;;;17.28;100.00
46087;BME280;31824;49.648;8.640;2023-07-22T00:40:55;100219.94;;;17.17;100.00
46087;BME280;31824;49.648;8.640;2023-07-22T00:43:57;100216.81;;;17.10;100.00
46087;BME280;31824;49.648;8.640;2023-07-22T00:47:00;100214.72;;;17.32;100.00
46087;BME280;31824;49.648;8.640;2023-07-22T00:50:05;100220.53;;;17.40;100.00
46087;BME280;31824;49.648;8.640;2023-07-22T00:53:08;100217.47;;;17.47;100.00
46087;BME280;31824;49.648;8.640;2023-07-22T00:56:09;100215.34;;;17.28;100.00
46087;BME280;31824;49.648;8.640;2023-07-22T00:59:12;100209.31;;;17.17;100.00
46087;BME280;31824;49.648;8.640;2023-07-22T01:02:16;100211.16;;;17.05;100.00
46087;BME280;31824;49.648;8.640;2023-07-22T01:05:19;100213.31;;;17.11;100.00
46087;BME280;31824;49.648;8.640;2023-07-22T01:08:21;100208.31;;;17.29;100.00
46087;BME280;31824;49.648;8.640;2023-07-22T01:11:23;100212.47;;;17.38;100.00
46087;BME280;31824;49.648;8.640;2023-07-22T01:14:25;100213.00;;;17.33;100.00
46087;BME280;31824;49.648;8.640;2023-07-22T01:17:29;100208.84;;;17.10;100.00
46087;BME280;31824;49.648;8.640;2023-07-22T01:20:31;100202.59;;;16.96;100.00
46087;BME280;31824;49.648;8.640;2023-07-22T01:23:35;100204.03;;;17.04;100.00
46087;BME280;31824;49.648;8.640;2023-07-22T01:26:37;100209.31;;;17.17;100.00
46087;BME280;31824;49.648;8.640;2023-07-22T01:29:39;100208.50;;;17.32;100.00
46087;BME280;31824;49.648;8.640;2023-07-22T01:32:40;100214.84;;;17.34;100.00
46087;BME280;31824;49.648;8.640;2023-07-22T01:35:42;100202.38;;;17.33;100.00
46087;BME280;31824;49.648;8.640;2023-07-22T01:38:46;100208.06;;;17.39;100.00
46087;BME280;31824;49.648;8.640;2023-07-22T01:41:48;100204.00;;;17.44;100.00
46087;BME280;31824;49.648;8.640;2023-07-22T01:44:50;100201.84;;;17.38;100.00
46087;BME280;31824;49.648;8.640;2023-07-22T01:47:52;100196.03;;;17.31;100.00
46087;BME280;31824;49.648;8.640;2023-07-22T01:50:54;100199.50;;;17.30;100.00
46087;BME280;31824;49.648;8.640;2023-07-22T01:53:57;100196.22;;;17.47;100.00
46087;BME280;31824;49.648;8.640;2023-07-22T01:56:59;100195.13;;;17.44;100.00
46087;BME280;31824;49.648;8.640;2023-07-22T02:00:01;100199.31;;;17.40;100.00
46087;BME280;31824;49.648;8.640;2023-07-22T02:03:13;100197.88;;;17.32;100.00
46087;BME280;31824;49.648;8.640;2023-07-22T02:06:15;100188.50;;;17.37;100.00
46087;BME280;31824;49.648;8.640;2023-07-22T02:09:18;100189.63;;;17.27;100.00
46087;BME280;31824;49.648;8.640;2023-07-22T02:12:20;100195.31;;;17.47;100.00
46087;BME280;31824;49.648;8.640;2023-07-22T02:15:23;100184.50;;;17.30;100.00
46087;BME280;31824;49.648;8.640;2023-07-22T02:18:26;100183.72;;;17.60;100.00
46087;BME280;31824;49.648;8.640;2023-07-22T02:21:28;100182.53;;;17.54;100.00
46087;BME280;31824;49.648;8.640;2023-07-22T02:24:32;100183.38;;;17.40;100.00
46087;BME280;31824;49.648;8.640;2023-07-22T02:27:34;100189.09;;;17.46;100.00
46087;BME280;31824;49.648;8.640;2023-07-22T02:30:36;100193.72;;;17.64;100.00
46087;BME280;31824;49.648;8.640;2023-07-22T02:33:39;100190.53;;;17.28;100.00
46087;BME280;31824;49.648;8.640;2023-07-22T02:36:41;100195.84;;;17.28;100.00
46087;BME280;31824;49.648;8.640;2023-07-22T02:39:44;100199.13;;;17.24;100.00
46087;BME280;31824;49.648;8.640;2023-07-22T02:42:46;100199.53;;;17.16;100.00
46087;BME280;31824;49.648;8.640;2023-07-22T02:45:48;100198.22;;;17.10;100.00
46087;BME280;31824;49.648;8.640;2023-07-22T02:48:50;100195.56;;;17.23;100.00
46087;BME280;31824;49.648;8.640;2023-07-22T02:51:52;100196.56;;;17.25;100.00
46087;BME280;31824;49.648;8.640;2023-07-22T02:55:16;100197.25;;;17.36;100.00
46087;BME280;31824;49.648;8.640;2023-07-22T02:58:21;100201.34;;;17.31;100.00
46087;BME280;31824;49.648;8.640;2023-07-22T03:01:23;100192.38;;;17.42;100.00
46087;BME280;31824;49.648;8.640;2023-07-22T03:04:26;100192.91;;;17.65;100.00
46087;BME280;31824;49.648;8.640;2023-07-22T03:07:28;100198.78;;;17.46;100.00
46087;BME280;31824;49.648;8.640;2023-07-22T03:10:31;100195.03;;;17.42;100.00
46087;BME280;31824;49.648;8.640;2023-07-22T03:13:33;100208.06;;;17.39;100.00
46087;BME280;31824;49.648;8.640;2023-07-22T03:16:36;100199.41;;;17.42;100.00
46087;BME280;31824;49.648;8.640;2023-07-22T03:19:38;100203.47;;;17.50;100.00
46087;BME280;31824;49.648;8.640;2023-07-22T03:22:40;100220.72;;;17.43;100.00
46087;BME280;31824;49.648;8.640;2023-07-22T03:25:44;100205.22;;;17.49;100.00
46087;BME280;31824;49.648;8.640;2023-07-22T03:28:45;100204.88;;;17.58;100.00
46087;BME280;31824;49.648;8.640;2023-07-22T03:31:47;100199.19;;;17.52;100.00
46087;BME280;31824;49.648;8.640;2023-07-22T03:34:49;100205.03;;;17.46;100.00
46087;BME280;31824;49.648;8.640;2023-07-22T03:37:51;100203.28;;;17.47;100.00
46087;BME280;31824;49.648;8.640;2023-07-22T03:40:54;100212.66;;;17.55;100.00
46087;BME280;31824;49.648;8.640;2023-07-22T03:43:56;100219.09;;;17.59;100.00
46087;BME280;31824;49.648;8.640;2023-07-22T03:46:59;100212.56;;;17.53;100.00
46087;BME280;31824;49.648;8.640;2023-07-22T03:50:01;100213.09;;;17.48;100.00
46087;BME280;31824;49.648;8.640;2023-07-22T03:53:03;100209.09;;;17.54;100.00
46087;BME280;31824;49.648;8.640;2023-07-22T03:56:06;100207.41;;;17.15;100.00
46087;BME280;31824;49.648;8.640;2023-07-22T03:59:08;100212.72;;;17.15;100.00
46087;BME280;31824;49.648;8.640;2023-07-22T04:02:10;100208.13;;;17.12;100.00
46087;BME280;31824;49.648;8.640;2023-07-22T04:05:12;100209.22;;;17.29;100.00
46087;BME280;31824;49.648;8.640;2023-07-22T04:08:14;100211.69;;;17.26;100.00
46087;BME280;31824;49.648;8.640;2023-07-22T04:11:17;100206.06;;;17.21;100.00
46087;BME280;31824;49.648;8.640;2023-07-22T04:14:19;100208.72;;;16.95;100.00
46087;BME280;31824;49.648;8.640;2023-07-22T04:17:21;100206.28;;;16.98;100.00
46087;BME280;31824;49.648;8.640;2023-07-22T04:20:22;100205.47;;;17.12;100.00
46087;BME280;31824;49.648;8.640;2023-07-22T04:23:26;100199.75;;;17.19;100.00
46087;BME280;31824;49.648;8.640;2023-07-22T04:26:29;100201.78;;;17.24;100.00
46087;BME280;31824;49.648;8.640;2023-07-22T04:29:31;100207.91;;;17.23;100.00
46087;BME280;31824;49.648;8.640;2023-07-22T04:32:33;100207.00;;;17.22;100.00
46087;BME280;31824;49.648;8.640;2023-07-22T04:35:36;100211.88;;;17.16;100.00
46087;BME280;31824;49.648;8.640;2023-07-22T04:38:38;100219.44;;;17.23;100.00
46087;BME280;31824;49.648;8.640;2023-07-22T04:41:41;100215.56;;;17.18;100.00
46087;BME280;31824;49.648;8.640;2023-07-22T04:44:43;100213.81;;;17.18;100.00
46087;BME280;31824;49.648;8.640;2023-07-22T04:47:45;100210.16;;;17.16;100.00
46087;BME280;31824;49.648;8.640;2023-07-22T04:50:49;100209.13;;;17.01;100.00
46087;BME280;31824;49.648;8.640;2023-07-22T04:53:51;100206.09;;;17.08;100.00
46087;BME280;31824;49.648;8.640;2023-07-22T04:56:54;100200.06;;;16.97;100.00
46087;BME280;31824;49.648;8.640;2023-07-22T04:59:55;100192.63;;;16.53;100.00
46087;BME280;31824;49.648;8.640;2023-07-22T05:02:57;100196.78;;;16.49;100.00
46087;BME280;31824;49.648;8.640;2023-07-22T05:05:59;100209.06;;;16.61;100.00
46087;BME280;31824;49.648;8.640;2023-07-22T05:09:01;100204.84;;;16.37;100.00
46087;BME280;31824;49.648;8.640;2023-07-22T05:12:06;100213.19;;;16.44;100.00
46087;BME280;31824;49.648;8.640;2023-07-22T05:15:09;100212.19;;;16.42;100.00
46087;BME280;31824;49.648;8.640;2023-07-22T05:18:11;100224.13;;;16.62;100.00
46087;BME280;31824;49.648;8.640;2023-07-22T05:21:13;100215.19;;;16.73;100.00
46087;BME280;31824;49.648;8.640;2023-07-22T05:24:15;100216.59;;;16.93;100.00
46087;BME280;31824;49.648;8.640;2023-07-22T05:27:18;100215.28;;;17.00;100.00
46087;BME280;31824;49.648;8.640;2023-07-22T05:30:20;100218.09;;;16.90;100.00
46087;BME280;31824;49.648;8.640;2023-07-22T05:33:36;100213.94;;;16.93;100.00
46087;BME280;31824;49.648;8.640;2023-07-22T05:36:39;100223.41;;;16.90;100.00
46087;BME280;31824;49.648;8.640;2023-07-22T05:39:41;100223.00;;;16.97;100.00
46087;BME280;31824;49.648;8.640;2023-07-22T05:42:44;100224.41;;;16.92;100.00
46087;BME280;31824;49.648;8.640;2023-07-22T05:45:46;100223.94;;;16.97;100.00
46087;BME280;31824;49.648;8.640;2023-07-22T05:48:47;100227.72;;;17.14;100.00
46087;BME280;31824;49.648;8.640;2023-07-22T05:51:49;100231.97;;;17.52;100.00
46087;BME280;31824;49.648;8.640;2023-07-22T05:54:51;100223.88;;;17.64;100.00
46087;BME280;31824;49.648;8.640;2023-07-22T05:57:55;100227.03;;;17.72;100.00
46087;BME280;31824;49.648;8.640;2023-07-22T06:00:57;100238.06;;;17.92;100.00
46087;BME280;31824;49.648;8.640;2023-07-22T06:03:58;100242.56;;;17.79;100.00
46087;BME280;31824;49.648;8.640;2023-07-22T06:07:00;100244.41;;;17.67;100.00
46087;BME280;31824;49.648;8.640;2023-07-22T06:10:02;100244.78;;;17.86;100.00
46087;BME280;31824;49.648;8.640;2023-07-22T06:13:08;100244.75;;;18.00;100.00
46087;BME280;31824;49.648;8.640;2023-07-22T06:16:09;100252.38;;;18.09;100.00
46087;BME280;31824;49.648;8.640;2023-07-22T06:19:11;100254.63;;;18.16;100.00
46087;BME280;31824;49.648;8.640;2023-07-22T06:22:13;100258.38;;;18.19;100.00
46087;BME280;31824;49.648;8.640;2023-07-22T06:25:15;100253.47;;;18.26;100.00
46087;BME280;31824;49.648;8.640;2023-07-22T06:28:18;100258.34;;;18.33;100.00
46087;BME280;31824;49.648;8.640;2023-07-22T06:31:20;100253.34;;;18.52;100.00
46087;BME280;31824;49.648;8.640;2023-07-22T06:34:23;100259.63;;;18.39;100.00
46087;BME280;31824;49.648;8.640;2023-07-22T06:37:25;100257.06;;;18.41;100.00
46087;BME280;31824;49.648;8.640;2023-07-22T06:40:27;100276.72;;;18.43;100.00
46087;BME280;31824;49.648;8.640;2023-07-22T06:43:31;100268.56;;;18.40;100.00
46087;BME280;31824;49.648;8.640;2023-07-22T06:46:33;100274.78;;;18.41;100.00
46087;BME280;31824;49.648;8.640;2023-07-22T06:49:35;100266.88;;;18.42;100.00
46087;BME280;31824;49.648;8.640;2023-07-22T06:52:36;100271.59;;;18.46;100.00
46087;BME280;31824;49.648;8.640;2023-07-22T06:55:38;100276.53;;;18.40;100.00
46087;BME280;31824;49.648;8.640;2023-07-22T06:58:41;100267.38;;;18.50;100.00
46087;BME280;31824;49.648;8.640;2023-07-22T07:01:43;100268.69;;;18.56;100.00
46087;BME280;31824;49.648;8.640;2023-07-22T07:04:45;100269.13;;;18.64;100.00
46087;BME280;31824;49.648;8.640;2023-07-22T07:07:48;100273.59;;;18.50;100.00
46087;BME280;31824;49.648;8.640;2023-07-22T07:10:50;100277.41;;;18.69;100.00
46087;BME280;31824;49.648;8.640;2023-07-22T07:13:54;100269.34;;;18.82;100.00
46087;BME280;31824;49.648;8.640;2023-07-22T07:16:56;100277.59;;;18.87;100.00
46087;BME280;31824;49.648;8.640;2023-07-22T07:19:58;100268.91;;;18.89;100.00
46087;BME280;31824;49.648;8.640;2023-07-22T07:22:59;100271.59;;;18.89;100.00
46087;BME280;31824;49.648;8.640;2023-07-22T07:26:01;100274.94;;;18.87;100.00
46087;BME280;31824;49.648;8.640;2023-07-22T07:29:05;100276.25;;;18.94;100.00
46087;BME280;31824;49.648;8.640;2023-07-22T07:32:07;100281.03;;;19.14;100.00
46087;BME280;31824;49.648;8.640;2023-07-22T07:35:10;100287.47;;;19.03;100.00
46087;BME280;31824;49.648;8.640;2023-07-22T07:38:12;100284.34;;;18.95;100.00
46087;BME280;31824;49.648;8.640;2023-07-22T07:41:32;100290.56;;;19.11;100.00
46087;BME280;31824;49.648;8.640;2023-07-22T07:44:35;100282.22;;;19.04;100.00
46087;BME280;31824;49.648;8.640;2023-07-22T07:47:36;100279.91;;;19.26;100.00
46087;BME280;31824;49.648;8.640;2023-07-22T07:50:38;100286.97;;;19.40;100.00
46087;BME280;31824;49.648;8.640;2023-07-22T07:53:40;100289.00;;;19.14;100.00
46087;BME280;31824;49.648;8.640;2023-07-22T07:56:42;100284.69;;;19.31;100.00
46087;BME280;31824;49.648;8.640;2023-07-22T07:59:46;100283.31;;;19.38;100.00
46087;BME280;31824;49.648;8.640;2023-07-22T08:02:48;100287.72;;;19.69;100.00
46087;BME280;31824;49.648;8.640;2023-07-22T08:05:50;100287.66;;;19.67;100.00
46087;BME280;31824;49.648;8.640;2023-07-22T08:08:53;100288.66;;;19.38;100.00
46087;BME280;31824;49.648;8.640;2023-07-22T08:11:54;100282.28;;;19.36;100.00
46087;BME280;31824;49.648;8.640;2023-07-22T08:14:58;100289.50;;;19.68;100.00
46087;BME280;31824;49.648;8.640;2023-07-22T08:18:00;100288.59;;;19.68;100.00
46087;BME280;31824;49.648;8.640;2023-07-22T08:21:02;100296.00;;;19.73;100.00
46087;BME280;31824;49.648;8.640;2023-07-22T08:24:05;100293.19;;;20.02;100.00
46087;BME280;31824;49.648;8.640;2023-07-22T08:27:07;100289.19;;;19.79;100.00
46087;BME280;31824;49.648;8.640;2023-07-22T08:30:11;100286.75;;;19.98;100.00
46087;BME280;31824;49.648;8.640;2023-07-22T08:33:13;100289.88;;;20.06;100.00
46087;BME280;31824;49.648;8.640;2023-07-22T08:36:22;100286.97;;;19.86;100.00
46087;BME280;31824;49.648;8.640;2023-07-22T08:39:23;100281.44;;;19.98;100.00
46087;BME280;31824;49.648;8.640;2023-07-22T08:42:27;100282.03;;;20.09;100.00
46087;BME280;31824;49.648;8.640;2023-07-22T08:45:33;100279.41;;;19.94;100.00
46087;BME280;31824;49.648;8.640;2023-07-22T08:48:41;100278.84;;;20.16;100.00
46087;BME280;31824;49.648;8.640;2023-07-22T08:51:44;100278.78;;;20.15;100.00
46087;BME280;31824;49.648;8.640;2023-07-22T08:54:46;100279.22;;;20.22;100.00
46087;BME280;31824;49.648;8.640;2023-07-22T08:57:50;100280.69;;;20.34;100.00
46087;BME280;31824;49.648;8.640;2023-07-22T09:00:55;100286.41;;;20.08;100.00
46087;BME280;31824;49.648;8.640;2023-07-22T09:03:58;100279.38;;;20.26;100.00
46087;BME280;31824;49.648;8.640;2023-07-22T09:07:00;100283.00;;;20.28;100.00
46087;BME280;31824;49.648;8.640;2023-07-22T09:10:03;100286.69;;;20.30;100.00
46087;BME280;31824;49.648;8.640;2023-07-22T09:13:06;100279.84;;;20.68;100.00
46087;BME280;31824;49.648;8.640;2023-07-22T09:16:11;100285.50;;;20.57;100.00
46087;BME280;31824;49.648;8.640;2023-07-22T09:19:13;100284.88;;;20.78;100.00
46087;BME280;31824;49.648;8.640;2023-07-22T09:22:15;100279.31;;;21.08;100.00
46087;BME280;31824;49.648;8.640;2023-07-22T09:25:18;100270.66;;;20.79;100.00
46087;BME280;31824;49.648;8.640;2023-07-22T09:28:20;100271.00;;;20.85;100.00
46087;BME280;31824;49.648;8.640;2023-07-22T09:31:25;100271.34;;;20.75;100.00
46087;BME280;31824;49.648;8.640;2023-07-22T09:34:27;100273.44;;;21.15;100.00
46087;BME280;31824;49.648;8.640;2023-07-22T09:37:36;100265.28;;;21.30;100.00
46087;BME280;31824;49.648;8.640;2023-07-22T09:40:40;100262.75;;;21.33;100.00
46087;BME280;31824;49.648;8.640;2023-07-22T09:43:46;100261.59;;;21.28;100.00
46087;BME280;31824;49.648;8.640;2023-07-22T09:46:50;100260.34;;;21.56;100.00
46087;BME280;31824;49.648;8.640;2023-07-22T09:49:52;100253.88;;;21.88;100.00
46087;BME280;31824;49.648;8.640;2023-07-22T09:52:55;100249.75;;;22.15;100.00
46087;BME280;31824;49.648;8.640;2023-07-22T09:56:03;100242.13;;;21.85;100.00
46087;BME280;31824;49.648;8.640;2023-07-22T09:59:05;100244.84;;;21.86;100.00
46087;BME280;31824;49.648;8.640;2023-07-22T10:02:11;100241.72;;;21.95;100.00
46087;BME280;31824;49.648;8.640;2023-07-22T10:05:14;100242.50;;;22.12;100.00
46087;BME280;31824;49.648;8.640;2023-07-22T10:08:18;100241.16;;;22.02;100.00
46087;BME280;31824;49.648;8.640;2023-07-22T10:11:22;100238.41;;;22.20;100.00
46087;BME280;31824;49.648;8.640;2023-07-22T10:14:24;100239.13;;;21.97;100.00
46087;BME280;31824;49.648;8.640;2023-07-22T10:17:29;100231.53;;;22.06;100.00
46087;BME280;31824;49.648;8.640;2023-07-22T10:20:31;100228.84;;;22.45;100.00
46087;BME280;31824;49.648;8.640;2023-07-22T10:23:40;100219.09;;;22.67;100.00
46087;BME280;31824;49.648;8.640;2023-07-22T10:26:42;100214.81;;;22.70;100.00
46087;BME280;31824;49.648;8.640;2023-07-22T10:29:49;100212.53;;;22.80;100.00
46087;BME280;31824;49.648;8.640;2023-07-22T10:32:53;100209.31;;;22.67;100.00
46087;BME280;31824;49.648;8.640;2023-07-22T10:36:04;100210.91;;;22.42;100.00
46087;BME280;31824;49.648;8.640;2023-07-22T10:39:06;100204.97;;;22.50;100.00
46087;BME280;31824;49.648;8.640;2023-07-22T10:42:09;100195.28;;;22.73;100.00
46087;BME280;31824;49.648;8.640;2023-07-22T10:45:28;100205.16;;;22.74;100.00
46087;BME280;31824;49.648;8.640;2023-07-22T10:48:36;100202.03;;;22.43;100.00
46087;BME280;31824;49.648;8.640;2023-07-22T10:51:39;100209.22;;;22.45;100.00
46087;BME280;31824;49.648;8.640;2023-07-22T10:54:42;100205.31;;;22.57;100.00
46087;BME280;31824;49.648;8.640;2023-07-22T10:57:48;100194.16;;;22.68;100.00
46087;BME280;31824;49.648;8.640;2023-07-22T11:00:51;100186.44;;;22.54;100.00
46087;BME280;31824;49.648;8.640;2023-07-22T11:04:14;100183.69;;;22.53;100.00
46087;BME280;31824;49.648;8.640;2023-07-22T11:07:30;100189.81;;;22.70;100.00
46087;BME280;31824;49.648;8.640;2023-07-22T11:10:53;100186.06;;;22.66;100.00
46087;BME280;31824;49.648;8.640;2023-07-22T11:14:13;100187.84;;;22.87;100.00
46087;BME280;31824;49.648;8.640;2023-07-22T11:17:14;100191.94;;;22.79;100.00
46087;BME280;31824;49.648;8.640;2023-07-22T11:20:18;100173.63;;;22.68;100.00
46087;BME280;31824;49.648;8.640;2023-07-22T11:23:19;100179.69;;;22.84;100.00
46087;BME280;31824;49.648;8.640;2023-07-22T11:26:21;100178.19;;;22.90;100.00
46087;BME280;31824;49.648;8.640;2023-07-22T11:29:23;100174.56;;;23.11;100.00
46087;BME280;31824;49.648;8.640;2023-07-22T11:32:25;100171.03;;;23.12;100.00
46087;BME280;31824;49.648;8.640;2023-07-22T11:35:49;100180.19;;;23.17;100.00
46087;BME280;31824;49.648;8.640;2023-07-22T11:38:51;100169.72;;;23.02;100.00
46087;BME280;31824;49.648;8.640;2023-07-22T11:41:53;100173.25;;;23.22;100.00
46087;BME280;31824;49.648;8.640;2023-07-22T11:44:55;100173.25;;;23.22;100.00
46087;BME280;31824;49.648;8.640;2023-07-22T11:47:57;100164.50;;;23.26;100.00
46087;BME280;31824;49.648;8.640;2023-07-22T11:51:00;100161.34;;;23.37;100.00
46087;BME280;31824;49.648;8.640;2023-07-22T11:54:02;100162.06;;;24.01;100.00
46087;BME280;31824;49.648;8.640;2023-07-22T11:57:11;100156.94;;;23.62;100.00
46087;BME280;31824;49.648;8.640;2023-07-22T12:00:13;100147.63;;;24.47;100.00
46087;BME280;31824;49.648;8.640;2023-07-22T12:03:15;100139.91;;;24.82;100.00
46087;BME280;31824;49.648;8.640;2023-07-22T12:06:19;100131.41;;;24.44;100.00
46087;BME280;31824;49.648;8.640;2023-07-22T12:12:31;100127.72;;;23.92;100.00
46087;BME280;31824;49.648;8.640;2023-07-22T12:15:33;100132.91;;;23.87;100.00
46087;BME280;31824;49.648;8.640;2023-07-22T12:21:17;100127.75;;;24.18;100.00
46087;BME280;31824;49.648;8.640;2023-07-22T12:24:19;100124.72;;;24.84;100.00
46087;BME280;31824;49.648;8.640;2023-07-22T12:27:59;100121.31;;;25.17;100.00
46087;BME280;31824;49.648;8.640;2023-07-22T12:31:02;100116.84;;;24.89;100.00
46087;BME280;31824;49.648;8.640;2023-07-22T12:34:04;100120.03;;;24.77;100.00
46087;BME280;31824;49.648;8.640;2023-07-22T12:37:07;100105.06;;;24.85;100.00
46087;BME280;31824;49.648;8.640;2023-07-22T12:40:11;100105.88;;;24.83;100.00
46087;BME280;31824;49.648;8.640;2023-07-22T12:43:14;100103.06;;;24.78;100.00
46087;BME280;31824;49.648;8.640;2023-07-22T12:46:16;100099.69;;;25.13;100.00
46087;BME280;31824;49.648;8.640;2023-07-22T12:49:18;100105.81;;;25.08;100.00
46087;BME280;31824;49.648;8.640;2023-07-22T12:52:21;100094.38;;;24.87;100.00
46087;BME280;31824;49.648;8.640;2023-07-22T12:55:23;100090.47;;;25.04;100.00
46087;BME280;31824;49.648;8.640;2023-07-22T12:58:25;100098.44;;;25.01;100.00
46087;BME280;31824;49.648;8.640;2023-07-22T13:01:27;100088.28;;;24.92;100.00
46087;BME280;31824;49.648;8.640;2023-07-22T13:04:29;100079.63;;;25.01;100.00
46087;BME280;31824;49.648;8.640;2023-07-22T13:07:33;100091.22;;;25.00;100.00
46087;BME280;31824;49.648;8.640;2023-07-22T13:10:35;100088.25;;;25.20;100.00
46087;BME280;31824;49.648;8.640;2023-07-22T13:13:39;100091.41;;;25.94;100.00
46087;BME280;31824;49.648;8.640;2023-07-22T13:16:44;100090.72;;;26.02;100.00
46087;BME280;31824;49.648;8.640;2023-07-22T13:19:46;100067.00;;;26.20;100.00
46087;BME280;31824;49.648;8.640;2023-07-22T13:22:49;100089.66;;;26.62;100.00
46087;BME280;31824;49.648;8.640;2023-07-22T13:25:51;100073.56;;;26.30;100.00
46087;BME280;31824;49.648;8.640;2023-07-22T13:28:53;100072.41;;;25.88;100.00
46087;BME280;31824;49.648;8.640;2023-07-22T13:31:55;100066.97;;;25.87;100.00
46087;BME280;31824;49.648;8.640;2023-07-22T13:34:56;100069.28;;;25.42;100.00
46087;BME280;31824;49.648;8.640;2023-07-22T13:38:00;100059.69;;;25.52;100.00
46087;BME280;31824;49.648;8.640;2023-07-22T13:41:02;100082.53;;;26.29;100.00
46087;BME280;31824;49.648;8.640;2023-07-22T13:44:04;100072.34;;;26.52;100.00
46087;BME280;31824;49.648;8.640;2023-07-22T13:47:07;100066.47;;;26.69;100.00
46087;BME280;31824;49.648;8.640;2023-07-22T13:50:09;100081.38;;;26.89;100.00
46087;BME280;31824;49.648;8.640;2023-07-22T13:53:13;100072.09;;;27.15;100.00
46087;BME280;31824;49.648;8.640;2023-07-22T13:56:14;100068.88;;;26.91;100.00
46087;BME280;31824;49.648;8.640;2023-07-22T13:59:16;100066.09;;;26.90;100.00
46087;BME280;31824;49.648;8.640;2023-07-22T14:02:18;100067.63;;;26.43;100.00
46087;BME280;31824;49.648;8.640;2023-07-22T14:05:20;100057.28;;;26.60;100.00
46087;BME280;31824;49.648;8.640;2023-07-22T14:08:24;100065.66;;;27.08;100.00
46087;BME280;31824;49.648;8.640;2023-07-22T14:11:25;100062.38;;;27.21;100.00
46087;BME280;31824;49.648;8.640;2023-07-22T14:14:28;100055.88;;;26.75;100.00
46087;BME280;31824;49.648;8.640;2023-07-22T14:17:30;100059.84;;;26.56;100.00
46087;BME280;31824;49.648;8.640;2023-07-22T14:20:36;100059.66;;;26.13;100.00
46087;BME280;31824;49.648;8.640;2023-07-22T14:23:39;100061.38;;;26.44;100.00
46087;BME280;31824;49.648;8.640;2023-07-22T14:26:41;100053.16;;;26.75;100.00
46087;BME280;31824;49.648;8.640;2023-07-22T14:29:43;100055.28;;;26.17;100.00
46087;BME280;31824;49.648;8.640;2023-07-22T14:32:44;100054.38;;;26.18;100.00
46087;BME280;31824;49.648;8.640;2023-07-22T14:35:46;100054.31;;;26.50;100.00
46087;BME280;31824;49.648;8.640;2023-07-22T14:38:50;100047.81;;;26.06;100.00
46087;BME280;31824;49.648;8.640;2023-07-22T14:41:52;100061.91;;;26.66;100.00
46087;BME280;31824;49.648;8.640;2023-07-22T14:44:54;100047.75;;;26.73;100.00
46087;BME280;31824;49.648;8.640;2023-07-22T14:47:56;100040.88;;;26.86;100.00
46087;BME280;31824;49.648;8.640;2023-07-22T14:50:58;100038.91;;;26.79;100.00
46087;BME280;31824;49.648;8.640;2023-07-22T14:54:01;100030.19;;;26.54;100.00
46087;BME280;31824;49.648;8.640;2023-07-22T14:57:04;100045.47;;;26.20;100.00
46087;BME280;31824;49.648;8.640;2023-07-22T15:00:06;100039.44;;;25.97;100.00
46087;BME280;31824;49.648;8.640;2023-07-22T15:03:26;100032.22;;;27.00;100.00
46087;BME280;31824;49.648;8.640;2023-07-22T15:06:28;100042.84;;;26.93;100.00
46087;BME280;31824;49.648;8.640;2023-07-22T15:09:31;100029.91;;;27.18;100.00
46087;BME280;31824;49.648;8.640;2023-07-22T15:12:33;100032.81;;;26.86;100.00
46087;BME280;31824;49.648;8.640;2023-07-22T15:15:35;100038.34;;;26.94;100.00
46087;BME280;31824;49.648;8.640;2023-07-22T15:18:37;100025.78;;;26.93;100.00
46087;BME280;31824;49.648;8.640;2023-07-22T15:21:39;100033.91;;;26.96;100.00
46087;BME280;31824;49.648;8.640;2023-07-22T15:24:43;100041.28;;;27.03;100.00
46087;BME280;31824;49.648;8.640;2023-07-22T15:27:45;100040.69;;;27.17;100.00
46087;BME280;31824;49.648;8.640;2023-07-22T15:30:47;100036.91;;;27.48;100.00
46087;BME280;31824;49.648;8.640;2023-07-22T15:33:49;100034.78;;;26.95;100.00
46087;BME280;31824;49.648;8.640;2023-07-22T15:36:51;100025.41;;;27.57;100.00
46087;BME280;31824;49.648;8.640;2023-07-22T15:39:54;100034.69;;;27.30;100.00
46087;BME280;31824;49.648;8.640;2023-07-22T15:42:56;100025.38;;;27.55;100.00
46087;BME280;31824;49.648;8.640;2023-07-22T15:45:58;100032.44;;;27.50;100.00
46087;BME280;31824;49.648;8.640;2023-07-22T15:49:00;100026.31;;;27.57;100.00
46087;BME280;31824;49.648;8.640;2023-07-22T15:52:03;100022.47;;;27.46;100.00